sensor_id;sensor_type;location;lat;lon;timestamp;P1;durP1;ratioP1;P2;durP2;ratioP2
79212;SDS011;68639;52.380;9.822;2023-08-01T00:00:31;3.55;;;1.35;;
79212;SDS011;68639;52.380;9.822;2023-08-01T00:02:56;3.20;;;1.20;;
79212;SDS011;68639;52.380;9.822;2023-08-01T00:05:21;3.03;;;1.52;;
79212;SDS011;68639;52.380;9.822;2023-08-01T00:07:47;4.25;;;1.50;;
79212;SDS011;68639;52.380;9.822;2023-08-01T00:10:12;4.28;;;1.40;;
79212;SDS011;68639;52.380;9.822;2023-08-01T00:12:37;6.53;;;1.70;;
79212;SDS011;68639;52.380;9.822;2023-08-01T00:15:02;3.70;;;1.70;;
79212;SDS011;68639;52.380;9.822;2023-08-01T00:17:28;2.92;;;1.60;;
79212;SDS011;68639;52.380;9.822;2023-08-01T00:19:53;7.22;;;1.48;;
79212;SDS011;68639;52.380;9.822;2023-08-01T00:22:20;2.47;;;1.38;;
79212;SDS011;68639;52.380;9.822;2023-08-01T00:24:45;5.88;;;1.63;;
79212;SDS011;68639;52.380;9.822;2023-08-01T00:27:12;4.22;;;1.63;;
79212;SDS011;68639;52.380;9.822;2023-08-01T00:29:37;4.05;;;1.70;;
79212;SDS011;68639;52.380;9.822;2023-08-01T00:32:02;4.65;;;1.65;;
79212;SDS011;68639;52.380;9.822;2023-08-01T00:34:28;4.20;;;1.95;;
79212;SDS011;68639;52.380;9.822;2023-08-01T00:36:53;6.40;;;1.90;;
79212;SDS011;68639;52.380;9.822;2023-08-01T00:39:18;6.57;;;1.65;;
79212;SDS011;68639;52.380;9.822;2023-08-01T00:41:43;4.22;;;1.73;;
79212;SDS011;68639;52.380;9.822;2023-08-01T00:44:08;4.45;;;1.95;;
79212;SDS011;68639;52.380;9.822;2023-08-01T00:46:33;3.50;;;1.35;;
79212;SDS011;68639;52.380;9.822;2023-08-01T00:48:59;3.20;;;1.48;;
79212;SDS011;68639;52.380;9.822;2023-08-01T00:51:25;3.33;;;1.80;;
79212;SDS011;68639;52.380;9.822;2023-08-01T00:53:51;7.07;;;1.50;;
79212;SDS011;68639;52.380;9.822;2023-08-01T00:56:16;3.80;;;1.55;;
79212;SDS011;68639;52.380;9.822;2023-08-01T00:58:41;2.83;;;1.55;;
79212;SDS011;68639;52.380;9.822;2023-08-01T01:01:07;4.60;;;1.80;;
79212;SDS011;68639;52.380;9.822;2023-08-01T01:03:32;3.33;;;1.90;;
79212;SDS011;68639;52.380;9.822;2023-08-01T01:06:01;3.05;;;1.90;;
79212;SDS011;68639;52.380;9.822;2023-08-01T01:08:27;4.00;;;1.65;;
79212;SDS011;68639;52.380;9.822;2023-08-01T01:10:52;4.25;;;1.60;;
79212;SDS011;68639;52.380;9.822;2023-08-01T01:13:18;3.05;;;1.42;;
79212;SDS011;68639;52.380;9.822;2023-08-01T01:15:43;3.28;;;1.83;;
79212;SDS011;68639;52.380;9.822;2023-08-01T01:18:08;2.75;;;1.40;;
79212;SDS011;68639;52.380;9.822;2023-08-01T01:20:36;6.57;;;1.73;;
79212;SDS011;68639;52.380;9.822;2023-08-01T01:23:03;7.35;;;1.58;;
79212;SDS011;68639;52.380;9.822;2023-08-01T01:25:28;4.43;;;1.48;;
79212;SDS011;68639;52.380;9.822;2023-08-01T01:27:54;4.50;;;1.40;;
79212;SDS011;68639;52.380;9.822;2023-08-01T01:30:20;4.50;;;1.50;;
79212;SDS011;68639;52.380;9.822;2023-08-01T01:32:46;7.22;;;1.33;;
79212;SDS011;68639;52.380;9.822;2023-08-01T01:35:11;4.22;;;1.50;;
79212;SDS011;68639;52.380;9.822;2023-08-01T01:37:36;1.75;;;1.20;;
79212;SDS011;68639;52.380;9.822;2023-08-01T01:40:02;4.82;;;1.35;;
79212;SDS011;68639;52.380;9.822;2023-08-01T01:42:27;3.60;;;1.15;;
79212;SDS011;68639;52.380;9.822;2023-08-01T01:44:52;4.10;;;1.30;;
79212;SDS011;68639;52.380;9.822;2023-08-01T01:47:17;4.88;;;1.17;;
79212;SDS011;68639;52.380;9.822;2023-08-01T01:49:43;3.22;;;1.38;;
79212;SDS011;68639;52.380;9.822;2023-08-01T01:52:08;3.45;;;1.33;;
79212;SDS011;68639;52.380;9.822;2023-08-01T01:54:33;2.22;;;1.20;;
79212;SDS011;68639;52.380;9.822;2023-08-01T01:56:58;4.43;;;1.17;;
79212;SDS011;68639;52.380;9.822;2023-08-01T01:59:23;3.40;;;1.50;;
79212;SDS011;68639;52.380;9.822;2023-08-01T02:01:49;2.60;;;1.15;;
79212;SDS011;68639;52.380;9.822;2023-08-01T02:04:14;3.83;;;1.77;;
79212;SDS011;68639;52.380;9.822;2023-08-01T02:06:39;5.93;;;1.27;;
79212;SDS011;68639;52.380;9.822;2023-08-01T02:09:04;3.20;;;1.30;;
79212;SDS011;68639;52.380;9.822;2023-08-01T02:11:30;3.15;;;1.10;;
79212;SDS011;68639;52.380;9.822;2023-08-01T02:13:55;3.95;;;1.30;;
79212;SDS011;68639;52.380;9.822;2023-08-01T02:16:20;2.92;;;1.20;;
79212;SDS011;68639;52.380;9.822;2023-08-01T02:18:45;3.53;;;0.95;;
79212;SDS011;68639;52.380;9.822;2023-08-01T02:21:10;4.45;;;0.90;;
79212;SDS011;68639;52.380;9.822;2023-08-01T02:23:36;6.05;;;1.00;;
79212;SDS011;68639;52.380;9.822;2023-08-01T02:26:02;3.97;;;0.90;;
79212;SDS011;68639;52.380;9.822;2023-08-01T02:28:27;6.32;;;1.15;;
79212;SDS011;68639;52.380;9.822;2023-08-01T02:30:53;6.28;;;1.08;;
79212;SDS011;68639;52.380;9.822;2023-08-01T02:33:18;2.13;;;1.00;;
79212;SDS011;68639;52.380;9.822;2023-08-01T02:35:43;1.70;;;0.85;;
79212;SDS011;68639;52.380;9.822;2023-08-01T02:38:08;4.00;;;1.00;;
79212;SDS011;68639;52.380;9.822;2023-08-01T02:40:33;5.07;;;0.80;;
79212;SDS011;68639;52.380;9.822;2023-08-01T02:42:59;4.28;;;0.82;;
79212;SDS011;68639;52.380;9.822;2023-08-01T02:45:24;2.67;;;1.10;;
79212;SDS011;68639;52.380;9.822;2023-08-01T02:47:50;3.13;;;1.20;;
79212;SDS011;68639;52.380;9.822;2023-08-01T02:50:15;3.65;;;1.10;;
79212;SDS011;68639;52.380;9.822;2023-08-01T02:52:40;8.13;;;1.30;;
79212;SDS011;68639;52.380;9.822;2023-08-01T02:55:06;3.30;;;0.85;;
79212;SDS011;68639;52.380;9.822;2023-08-01T02:57:31;2.42;;;0.90;;
79212;SDS011;68639;52.380;9.822;2023-08-01T02:59:56;2.78;;;0.93;;
79212;SDS011;68639;52.380;9.822;2023-08-01T03:02:21;1.98;;;0.70;;
79212;SDS011;68639;52.380;9.822;2023-08-01T03:04:46;3.17;;;0.90;;
79212;SDS011;68639;52.380;9.822;2023-08-01T03:07:12;3.00;;;0.75;;
79212;SDS011;68639;52.380;9.822;2023-08-01T03:09:37;1.83;;;0.90;;
79212;SDS011;68639;52.380;9.822;2023-08-01T03:12:02;3.80;;;0.90;;
79212;SDS011;68639;52.380;9.822;2023-08-01T03:14:28;4.60;;;0.85;;
79212;SDS011;68639;52.380;9.822;2023-08-01T03:16:53;2.78;;;0.80;;
79212;SDS011;68639;52.380;9.822;2023-08-01T03:19:18;4.75;;;1.00;;
79212;SDS011;68639;52.380;9.822;2023-08-01T03:21:43;2.85;;;1.02;;
79212;SDS011;68639;52.380;9.822;2023-08-01T03:24:08;4.43;;;1.00;;
79212;SDS011;68639;52.380;9.822;2023-08-01T03:26:36;1.38;;;0.85;;
79212;SDS011;68639;52.380;9.822;2023-08-01T03:29:02;4.43;;;0.93;;
79212;SDS011;68639;52.380;9.822;2023-08-01T03:31:27;5.05;;;0.85;;
79212;SDS011;68639;52.380;9.822;2023-08-01T03:33:52;2.58;;;0.95;;
79212;SDS011;68639;52.380;9.822;2023-08-01T03:36:17;2.25;;;1.02;;
79212;SDS011;68639;52.380;9.822;2023-08-01T03:38:43;3.17;;;0.95;;
79212;SDS011;68639;52.380;9.822;2023-08-01T03:41:08;4.03;;;1.27;;
79212;SDS011;68639;52.380;9.822;2023-08-01T03:43:33;2.28;;;0.90;;
79212;SDS011;68639;52.380;9.822;2023-08-01T03:45:58;1.50;;;0.70;;
79212;SDS011;68639;52.380;9.822;2023-08-01T03:48:24;3.90;;;0.88;;
79212;SDS011;68639;52.380;9.822;2023-08-01T03:50:49;2.90;;;0.98;;
79212;SDS011;68639;52.380;9.822;2023-08-01T03:53:14;3.42;;;0.80;;
79212;SDS011;68639;52.380;9.822;2023-08-01T03:55:39;5.40;;;0.93;;
79212;SDS011;68639;52.380;9.822;2023-08-01T03:58:05;4.32;;;0.70;;
79212;SDS011;68639;52.380;9.822;2023-08-01T04:00:30;2.50;;;0.77;;
79212;SDS011;68639;52.380;9.822;2023-08-01T04:02:59;3.35;;;0.80;;
79212;SDS011;68639;52.380;9.822;2023-08-01T04:05:24;5.30;;;0.73;;
79212;SDS011;68639;52.380;9.822;2023-08-01T04:07:49;3.17;;;0.70;;
79212;SDS011;68639;52.380;9.822;2023-08-01T04:10:15;3.80;;;0.80;;
79212;SDS011;68639;52.380;9.822;2023-08-01T04:12:40;3.17;;;0.75;;
79212;SDS011;68639;52.380;9.822;2023-08-01T04:15:07;2.25;;;0.90;;
79212;SDS011;68639;52.380;9.822;2023-08-01T04:17:32;3.60;;;0.80;;
79212;SDS011;68639;52.380;9.822;2023-08-01T04:19:57;2.08;;;0.80;;
79212;SDS011;68639;52.380;9.822;2023-08-01T04:22:22;2.22;;;0.70;;
79212;SDS011;68639;52.380;9.822;2023-08-01T04:24:48;4.63;;;0.60;;
79212;SDS011;68639;52.380;9.822;2023-08-01T04:27:13;3.08;;;0.63;;
79212;SDS011;68639;52.380;9.822;2023-08-01T04:29:38;1.50;;;0.70;;
79212;SDS011;68639;52.380;9.822;2023-08-01T04:32:03;3.70;;;0.63;;
79212;SDS011;68639;52.380;9.822;2023-08-01T04:34:29;3.47;;;0.80;;
79212;SDS011;68639;52.380;9.822;2023-08-01T04:36:54;2.70;;;0.70;;
79212;SDS011;68639;52.380;9.822;2023-08-01T04:39:20;4.63;;;0.80;;
79212;SDS011;68639;52.380;9.822;2023-08-01T04:41:45;1.20;;;0.75;;
79212;SDS011;68639;52.380;9.822;2023-08-01T04:44:10;3.95;;;0.70;;
79212;SDS011;68639;52.380;9.822;2023-08-01T04:46:35;3.90;;;0.77;;
79212;SDS011;68639;52.380;9.822;2023-08-01T04:49:01;3.05;;;0.73;;
79212;SDS011;68639;52.380;9.822;2023-08-01T04:51:26;5.07;;;0.80;;
79212;SDS011;68639;52.380;9.822;2023-08-01T04:53:51;3.33;;;0.70;;
79212;SDS011;68639;52.380;9.822;2023-08-01T04:56:16;3.75;;;0.60;;
79212;SDS011;68639;52.380;9.822;2023-08-01T04:58:41;2.83;;;0.70;;
79212;SDS011;68639;52.380;9.822;2023-08-01T05:01:07;3.50;;;0.60;;
79212;SDS011;68639;52.380;9.822;2023-08-01T05:03:32;2.75;;;0.70;;
79212;SDS011;68639;52.380;9.822;2023-08-01T05:05:57;4.88;;;1.05;;
79212;SDS011;68639;52.380;9.822;2023-08-01T05:08:22;3.90;;;0.90;;
79212;SDS011;68639;52.380;9.822;2023-08-01T05:10:47;2.75;;;1.00;;
79212;SDS011;68639;52.380;9.822;2023-08-01T05:13:13;1.83;;;0.80;;
79212;SDS011;68639;52.380;9.822;2023-08-01T05:15:38;3.08;;;1.02;;
79212;SDS011;68639;52.380;9.822;2023-08-01T05:18:03;4.10;;;1.00;;
79212;SDS011;68639;52.380;9.822;2023-08-01T05:20:28;4.47;;;0.93;;
79212;SDS011;68639;52.380;9.822;2023-08-01T05:22:57;1.58;;;0.90;;
79212;SDS011;68639;52.380;9.822;2023-08-01T05:25:22;2.67;;;1.00;;
79212;SDS011;68639;52.380;9.822;2023-08-01T05:27:47;3.03;;;1.20;;
79212;SDS011;68639;52.380;9.822;2023-08-01T05:30:12;3.53;;;1.05;;
79212;SDS011;68639;52.380;9.822;2023-08-01T05:32:37;1.67;;;0.90;;
79212;SDS011;68639;52.380;9.822;2023-08-01T05:35:05;4.05;;;1.00;;
79212;SDS011;68639;52.380;9.822;2023-08-01T05:37:30;2.78;;;1.10;;
79212;SDS011;68639;52.380;9.822;2023-08-01T05:39:55;3.83;;;0.88;;
79212;SDS011;68639;52.380;9.822;2023-08-01T05:42:20;4.20;;;0.85;;
79212;SDS011;68639;52.380;9.822;2023-08-01T05:44:46;3.22;;;1.00;;
79212;SDS011;68639;52.380;9.822;2023-08-01T05:47:11;3.90;;;1.17;;
79212;SDS011;68639;52.380;9.822;2023-08-01T05:49:36;4.65;;;1.10;;
79212;SDS011;68639;52.380;9.822;2023-08-01T05:52:01;4.13;;;1.10;;
79212;SDS011;68639;52.380;9.822;2023-08-01T05:54:27;1.98;;;0.80;;
79212;SDS011;68639;52.380;9.822;2023-08-01T05:56:52;3.30;;;1.20;;
79212;SDS011;68639;52.380;9.822;2023-08-01T05:59:17;8.48;;;1.20;;
79212;SDS011;68639;52.380;9.822;2023-08-01T06:01:42;2.10;;;1.00;;
79212;SDS011;68639;52.380;9.822;2023-08-01T06:04:08;8.48;;;1.67;;
79212;SDS011;68639;52.380;9.822;2023-08-01T06:06:33;3.83;;;1.60;;
79212;SDS011;68639;52.380;9.822;2023-08-01T06:08:58;3.00;;;1.45;;
79212;SDS011;68639;52.380;9.822;2023-08-01T06:11:24;4.50;;;1.88;;
79212;SDS011;68639;52.380;9.822;2023-08-01T06:13:49;3.30;;;1.60;;
79212;SDS011;68639;52.380;9.822;2023-08-01T06:16:14;3.80;;;1.95;;
79212;SDS011;68639;52.380;9.822;2023-08-01T06:18:39;3.67;;;2.10;;
79212;SDS011;68639;52.380;9.822;2023-08-01T06:21:04;4.68;;;2.42;;
79212;SDS011;68639;52.380;9.822;2023-08-01T06:23:30;8.93;;;2.72;;
79212;SDS011;68639;52.380;9.822;2023-08-01T06:25:55;8.40;;;2.80;;
79212;SDS011;68639;52.380;9.822;2023-08-01T06:28:20;5.70;;;2.83;;
79212;SDS011;68639;52.380;9.822;2023-08-01T06:30:45;4.40;;;2.90;;
79212;SDS011;68639;52.380;9.822;2023-08-01T06:33:10;5.68;;;3.33;;
79212;SDS011;68639;52.380;9.822;2023-08-01T06:35:36;9.10;;;3.45;;
79212;SDS011;68639;52.380;9.822;2023-08-01T06:38:01;10.38;;;3.13;;
79212;SDS011;68639;52.380;9.822;2023-08-01T06:40:26;11.45;;;3.85;;
79212;SDS011;68639;52.380;9.822;2023-08-01T06:42:51;8.45;;;3.72;;
79212;SDS011;68639;52.380;9.822;2023-08-01T06:45:17;7.88;;;3.30;;
79212;SDS011;68639;52.380;9.822;2023-08-01T06:47:42;7.13;;;3.63;;
79212;SDS011;68639;52.380;9.822;2023-08-01T06:50:07;9.95;;;3.50;;
79212;SDS011;68639;52.380;9.822;2023-08-01T06:52:33;9.20;;;3.80;;
79212;SDS011;68639;52.380;9.822;2023-08-01T06:54:58;6.75;;;3.13;;
79212;SDS011;68639;52.380;9.822;2023-08-01T06:57:23;8.07;;;3.50;;
79212;SDS011;68639;52.380;9.822;2023-08-01T06:59:48;7.45;;;3.58;;
79212;SDS011;68639;52.380;9.822;2023-08-01T07:02:13;10.48;;;3.80;;
79212;SDS011;68639;52.380;9.822;2023-08-01T07:04:40;10.50;;;4.28;;
79212;SDS011;68639;52.380;9.822;2023-08-01T07:07:05;11.02;;;4.15;;
79212;SDS011;68639;52.380;9.822;2023-08-01T07:09:30;7.30;;;4.00;;
79212;SDS011;68639;52.380;9.822;2023-08-01T07:11:56;14.13;;;5.18;;
79212;SDS011;68639;52.380;9.822;2023-08-01T07:14:21;10.38;;;4.65;;
79212;SDS011;68639;52.380;9.822;2023-08-01T07:16:46;11.77;;;4.57;;
79212;SDS011;68639;52.380;9.822;2023-08-01T07:19:11;12.43;;;4.72;;
79212;SDS011;68639;52.380;9.822;2023-08-01T07:21:37;9.15;;;4.68;;
79212;SDS011;68639;52.380;9.822;2023-08-01T07:24:02;10.40;;;4.18;;
79212;SDS011;68639;52.380;9.822;2023-08-01T07:26:27;9.80;;;4.72;;
79212;SDS011;68639;52.380;9.822;2023-08-01T07:28:53;11.55;;;4.65;;
79212;SDS011;68639;52.380;9.822;2023-08-01T07:31:19;14.55;;;5.13;;
79212;SDS011;68639;52.380;9.822;2023-08-01T07:33:44;12.07;;;5.18;;
79212;SDS011;68639;52.380;9.822;2023-08-01T07:36:09;9.15;;;4.60;;
79212;SDS011;68639;52.380;9.822;2023-08-01T07:38:34;10.10;;;5.07;;
79212;SDS011;68639;52.380;9.822;2023-08-01T07:41:03;11.43;;;5.10;;
79212;SDS011;68639;52.380;9.822;2023-08-01T07:43:29;13.00;;;5.30;;
79212;SDS011;68639;52.380;9.822;2023-08-01T07:45:57;13.13;;;5.72;;
79212;SDS011;68639;52.380;9.822;2023-08-01T07:48:23;12.40;;;5.47;;
79212;SDS011;68639;52.380;9.822;2023-08-01T07:50:48;13.30;;;5.68;;
79212;SDS011;68639;52.380;9.822;2023-08-01T07:53:13;14.27;;;5.72;;
79212;SDS011;68639;52.380;9.822;2023-08-01T07:55:38;11.35;;;5.18;;
79212;SDS011;68639;52.380;9.822;2023-08-01T07:58:04;11.43;;;5.00;;
79212;SDS011;68639;52.380;9.822;2023-08-01T08:00:29;13.00;;;4.90;;
79212;SDS011;68639;52.380;9.822;2023-08-01T08:02:54;11.75;;;4.63;;
79212;SDS011;68639;52.380;9.822;2023-08-01T08:05:19;13.45;;;4.70;;
79212;SDS011;68639;52.380;9.822;2023-08-01T08:07:44;8.10;;;4.57;;
79212;SDS011;68639;52.380;9.822;2023-08-01T08:10:10;12.00;;;5.22;;
79212;SDS011;68639;52.380;9.822;2023-08-01T08:12:35;12.20;;;4.97;;
79212;SDS011;68639;52.380;9.822;2023-08-01T08:15:00;11.20;;;4.68;;
79212;SDS011;68639;52.380;9.822;2023-08-01T08:17:25;11.73;;;4.90;;
79212;SDS011;68639;52.380;9.822;2023-08-01T08:19:51;8.90;;;4.47;;
79212;SDS011;68639;52.380;9.822;2023-08-01T08:22:16;15.98;;;5.03;;
79212;SDS011;68639;52.380;9.822;2023-08-01T08:24:41;10.43;;;4.45;;
79212;SDS011;68639;52.380;9.822;2023-08-01T08:27:06;7.90;;;4.00;;
79212;SDS011;68639;52.380;9.822;2023-08-01T08:29:32;11.82;;;4.63;;
79212;SDS011;68639;52.380;9.822;2023-08-01T08:31:57;12.63;;;4.50;;
79212;SDS011;68639;52.380;9.822;2023-08-01T08:34:22;13.50;;;4.20;;
79212;SDS011;68639;52.380;9.822;2023-08-01T08:36:47;14.55;;;4.88;;
79212;SDS011;68639;52.380;9.822;2023-08-01T08:39:15;12.60;;;4.95;;
79212;SDS011;68639;52.380;9.822;2023-08-01T08:41:47;13.00;;;4.22;;
79212;SDS011;68639;52.380;9.822;2023-08-01T08:44:14;9.07;;;3.95;;
79212;SDS011;68639;52.380;9.822;2023-08-01T08:46:40;10.52;;;4.28;;
79212;SDS011;68639;52.380;9.822;2023-08-01T08:49:06;10.15;;;4.00;;
79212;SDS011;68639;52.380;9.822;2023-08-01T08:51:31;9.50;;;4.15;;
79212;SDS011;68639;52.380;9.822;2023-08-01T08:53:57;11.77;;;3.85;;
79212;SDS011;68639;52.380;9.822;2023-08-01T08:56:23;8.88;;;3.40;;
79212;SDS011;68639;52.380;9.822;2023-08-01T08:58:48;8.18;;;2.90;;
79212;SDS011;68639;52.380;9.822;2023-08-01T09:01:14;6.10;;;2.40;;
79212;SDS011;68639;52.380;9.822;2023-08-01T09:03:39;7.20;;;2.67;;
79212;SDS011;68639;52.380;9.822;2023-08-01T09:06:09;8.30;;;2.70;;
79212;SDS011;68639;52.380;9.822;2023-08-01T09:08:36;6.20;;;2.70;;
79212;SDS011;68639;52.380;9.822;2023-08-01T09:11:04;7.13;;;2.50;;
79212;SDS011;68639;52.380;9.822;2023-08-01T09:13:29;7.57;;;2.90;;
79212;SDS011;68639;52.380;9.822;2023-08-01T09:15:54;10.95;;;2.85;;
79212;SDS011;68639;52.380;9.822;2023-08-01T09:18:21;4.88;;;2.45;;
79212;SDS011;68639;52.380;9.822;2023-08-01T09:20:47;7.40;;;2.88;;
79212;SDS011;68639;52.380;9.822;2023-08-01T09:23:13;6.38;;;2.60;;
79212;SDS011;68639;52.380;9.822;2023-08-01T09:25:38;7.45;;;2.75;;
79212;SDS011;68639;52.380;9.822;2023-08-01T09:28:14;5.85;;;2.50;;
79212;SDS011;68639;52.380;9.822;2023-08-01T09:30:49;6.03;;;2.40;;
79212;SDS011;68639;52.380;9.822;2023-08-01T09:33:15;7.20;;;2.60;;
79212;SDS011;68639;52.380;9.822;2023-08-01T09:35:40;6.38;;;2.40;;
79212;SDS011;68639;52.380;9.822;2023-08-01T09:38:06;5.68;;;2.30;;
79212;SDS011;68639;52.380;9.822;2023-08-01T09:40:37;7.47;;;2.03;;
79212;SDS011;68639;52.380;9.822;2023-08-01T09:43:02;8.65;;;2.17;;
79212;SDS011;68639;52.380;9.822;2023-08-01T09:45:28;6.32;;;2.03;;
79212;SDS011;68639;52.380;9.822;2023-08-01T09:47:53;8.57;;;2.47;;
79212;SDS011;68639;52.380;9.822;2023-08-01T09:50:22;7.50;;;2.00;;
79212;SDS011;68639;52.380;9.822;2023-08-01T09:52:47;6.80;;;2.58;;
79212;SDS011;68639;52.380;9.822;2023-08-01T09:55:25;4.82;;;2.40;;
79212;SDS011;68639;52.380;9.822;2023-08-01T09:57:51;5.25;;;1.88;;
79212;SDS011;68639;52.380;9.822;2023-08-01T10:00:18;4.68;;;2.00;;
79212;SDS011;68639;52.380;9.822;2023-08-01T10:02:43;6.55;;;2.22;;
79212;SDS011;68639;52.380;9.822;2023-08-01T10:05:10;5.40;;;2.08;;
79212;SDS011;68639;52.380;9.822;2023-08-01T10:07:37;4.70;;;1.60;;
79212;SDS011;68639;52.380;9.822;2023-08-01T10:10:03;5.63;;;2.30;;
79212;SDS011;68639;52.380;9.822;2023-08-01T10:12:29;5.50;;;2.08;;
79212;SDS011;68639;52.380;9.822;2023-08-01T10:14:54;5.68;;;2.13;;
79212;SDS011;68639;52.380;9.822;2023-08-01T10:17:21;7.32;;;2.30;;
79212;SDS011;68639;52.380;9.822;2023-08-01T10:19:46;7.40;;;1.88;;
79212;SDS011;68639;52.380;9.822;2023-08-01T10:22:13;4.90;;;1.75;;
79212;SDS011;68639;52.380;9.822;2023-08-01T10:24:39;5.22;;;1.70;;
79212;SDS011;68639;52.380;9.822;2023-08-01T10:27:14;5.07;;;1.60;;
79212;SDS011;68639;52.380;9.822;2023-08-01T10:29:39;7.00;;;1.63;;
79212;SDS011;68639;52.380;9.822;2023-08-01T10:32:06;5.13;;;1.67;;
79212;SDS011;68639;52.380;9.822;2023-08-01T10:34:31;8.70;;;1.77;;
79212;SDS011;68639;52.380;9.822;2023-08-01T10:36:57;5.38;;;1.83;;
79212;SDS011;68639;52.380;9.822;2023-08-01T10:39:23;5.45;;;1.50;;
79212;SDS011;68639;52.380;9.822;2023-08-01T10:41:56;5.95;;;1.88;;
79212;SDS011;68639;52.380;9.822;2023-08-01T10:44:21;5.68;;;1.50;;
79212;SDS011;68639;52.380;9.822;2023-08-01T10:46:47;5.07;;;1.90;;
79212;SDS011;68639;52.380;9.822;2023-08-01T10:49:13;4.80;;;1.58;;
79212;SDS011;68639;52.380;9.822;2023-08-01T10:51:38;4.78;;;1.70;;
79212;SDS011;68639;52.380;9.822;2023-08-01T10:54:04;4.88;;;1.85;;
79212;SDS011;68639;52.380;9.822;2023-08-01T10:56:29;6.25;;;2.17;;
79212;SDS011;68639;52.380;9.822;2023-08-01T10:58:56;6.32;;;1.88;;
79212;SDS011;68639;52.380;9.822;2023-08-01T11:01:21;10.38;;;2.08;;
79212;SDS011;68639;52.380;9.822;2023-08-01T11:03:47;10.55;;;2.00;;
79212;SDS011;68639;52.380;9.822;2023-08-01T11:06:12;11.70;;;2.25;;
79212;SDS011;68639;52.380;9.822;2023-08-01T11:08:38;7.15;;;2.20;;
79212;SDS011;68639;52.380;9.822;2023-08-01T11:11:07;7.32;;;2.15;;
79212;SDS011;68639;52.380;9.822;2023-08-01T11:13:33;4.47;;;2.08;;
79212;SDS011;68639;52.380;9.822;2023-08-01T11:16:00;5.78;;;2.05;;
79212;SDS011;68639;52.380;9.822;2023-08-01T11:18:25;3.80;;;1.60;;
79212;SDS011;68639;52.380;9.822;2023-08-01T11:20:51;4.97;;;2.08;;
79212;SDS011;68639;52.380;9.822;2023-08-01T11:23:16;12.05;;;2.50;;
79212;SDS011;68639;52.380;9.822;2023-08-01T11:25:42;6.93;;;1.92;;
79212;SDS011;68639;52.380;9.822;2023-08-01T11:30:34;5.50;;;2.03;;
79212;SDS011;68639;52.380;9.822;2023-08-01T11:32:59;5.13;;;1.45;;
79212;SDS011;68639;52.380;9.822;2023-08-01T11:35:25;8.45;;;1.50;;
79212;SDS011;68639;52.380;9.822;2023-08-01T11:37:50;4.75;;;1.50;;
79212;SDS011;68639;52.380;9.822;2023-08-01T11:40:16;4.05;;;1.13;;
79212;SDS011;68639;52.380;9.822;2023-08-01T11:42:41;5.68;;;2.30;;
79212;SDS011;68639;52.380;9.822;2023-08-01T11:45:07;6.25;;;2.50;;
79212;SDS011;68639;52.380;9.822;2023-08-01T11:47:32;5.47;;;1.60;;
79212;SDS011;68639;52.380;9.822;2023-08-01T11:49:57;5.13;;;1.75;;
79212;SDS011;68639;52.380;9.822;2023-08-01T11:52:27;6.68;;;2.30;;
79212;SDS011;68639;52.380;9.822;2023-08-01T11:54:52;5.55;;;1.85;;
79212;SDS011;68639;52.380;9.822;2023-08-01T11:57:19;5.43;;;1.92;;
79212;SDS011;68639;52.380;9.822;2023-08-01T11:59:48;4.45;;;1.77;;
79212;SDS011;68639;52.380;9.822;2023-08-01T12:02:24;8.88;;;2.45;;
79212;SDS011;68639;52.380;9.822;2023-08-01T12:04:50;8.32;;;2.08;;
79212;SDS011;68639;52.380;9.822;2023-08-01T12:07:16;7.35;;;2.30;;
79212;SDS011;68639;52.380;9.822;2023-08-01T12:09:41;5.30;;;2.03;;
79212;SDS011;68639;52.380;9.822;2023-08-01T12:12:08;7.53;;;2.10;;
79212;SDS011;68639;52.380;9.822;2023-08-01T12:14:33;5.72;;;1.88;;
79212;SDS011;68639;52.380;9.822;2023-08-01T12:16:58;7.60;;;2.28;;
79212;SDS011;68639;52.380;9.822;2023-08-01T12:19:23;6.85;;;2.00;;
79212;SDS011;68639;52.380;9.822;2023-08-01T12:21:49;4.28;;;1.48;;
79212;SDS011;68639;52.380;9.822;2023-08-01T12:24:14;4.38;;;1.98;;
79212;SDS011;68639;52.380;9.822;2023-08-01T12:26:39;8.50;;;2.03;;
79212;SDS011;68639;52.380;9.822;2023-08-01T12:29:05;5.63;;;2.17;;
79212;SDS011;68639;52.380;9.822;2023-08-01T12:31:30;5.97;;;2.20;;
79212;SDS011;68639;52.380;9.822;2023-08-01T12:33:55;4.45;;;1.95;;
79212;SDS011;68639;52.380;9.822;2023-08-01T12:36:21;6.15;;;2.20;;
79212;SDS011;68639;52.380;9.822;2023-08-01T12:38:46;4.68;;;1.60;;
79212;SDS011;68639;52.380;9.822;2023-08-01T12:41:11;4.35;;;1.67;;
79212;SDS011;68639;52.380;9.822;2023-08-01T12:43:37;3.70;;;1.50;;
79212;SDS011;68639;52.380;9.822;2023-08-01T12:46:02;4.57;;;1.50;;
79212;SDS011;68639;52.380;9.822;2023-08-01T12:48:27;4.07;;;1.90;;
79212;SDS011;68639;52.380;9.822;2023-08-01T12:50:53;4.03;;;1.40;;
79212;SDS011;68639;52.380;9.822;2023-08-01T12:53:18;4.25;;;1.58;;
79212;SDS011;68639;52.380;9.822;2023-08-01T12:55:44;4.80;;;1.80;;
79212;SDS011;68639;52.380;9.822;2023-08-01T12:58:10;4.63;;;1.70;;
79212;SDS011;68639;52.380;9.822;2023-08-01T13:00:35;6.45;;;1.98;;
79212;SDS011;68639;52.380;9.822;2023-08-01T13:03:00;4.38;;;1.75;;
79212;SDS011;68639;52.380;9.822;2023-08-01T13:05:25;4.80;;;1.60;;
79212;SDS011;68639;52.380;9.822;2023-08-01T13:07:51;6.10;;;1.90;;
79212;SDS011;68639;52.380;9.822;2023-08-01T13:10:16;4.28;;;1.65;;
79212;SDS011;68639;52.380;9.822;2023-08-01T13:12:41;7.43;;;1.67;;
79212;SDS011;68639;52.380;9.822;2023-08-01T13:15:07;5.55;;;1.70;;
79212;SDS011;68639;52.380;9.822;2023-08-01T13:17:32;7.20;;;1.80;;
79212;SDS011;68639;52.380;9.822;2023-08-01T13:19:57;6.30;;;1.88;;
79212;SDS011;68639;52.380;9.822;2023-08-01T13:22:22;4.22;;;1.80;;
79212;SDS011;68639;52.380;9.822;2023-08-01T13:24:47;8.13;;;1.73;;
79212;SDS011;68639;52.380;9.822;2023-08-01T13:27:13;6.93;;;1.83;;
79212;SDS011;68639;52.380;9.822;2023-08-01T13:29:38;6.60;;;2.20;;
79212;SDS011;68639;52.380;9.822;2023-08-01T13:32:05;12.38;;;2.33;;
79212;SDS011;68639;52.380;9.822;2023-08-01T13:34:30;10.45;;;2.20;;
79212;SDS011;68639;52.380;9.822;2023-08-01T13:36:55;9.65;;;2.17;;
79212;SDS011;68639;52.380;9.822;2023-08-01T13:39:21;4.20;;;1.70;;
79212;SDS011;68639;52.380;9.822;2023-08-01T13:41:46;4.82;;;1.58;;
79212;SDS011;68639;52.380;9.822;2023-08-01T13:44:12;6.53;;;1.83;;
79212;SDS011;68639;52.380;9.822;2023-08-01T13:46:37;4.60;;;1.38;;
79212;SDS011;68639;52.380;9.822;2023-08-01T13:49:02;5.47;;;1.70;;
79212;SDS011;68639;52.380;9.822;2023-08-01T13:51:27;5.95;;;2.10;;
79212;SDS011;68639;52.380;9.822;2023-08-01T13:53:52;3.90;;;1.20;;
79212;SDS011;68639;52.380;9.822;2023-08-01T13:56:18;4.70;;;1.60;;
79212;SDS011;68639;52.380;9.822;2023-08-01T13:58:43;4.68;;;1.60;;
79212;SDS011;68639;52.380;9.822;2023-08-01T14:01:08;6.45;;;1.80;;
79212;SDS011;68639;52.380;9.822;2023-08-01T14:03:38;6.40;;;1.67;;
79212;SDS011;68639;52.380;9.822;2023-08-01T14:06:05;5.80;;;1.80;;
79212;SDS011;68639;52.380;9.822;2023-08-01T14:08:30;5.95;;;2.00;;
79212;SDS011;68639;52.380;9.822;2023-08-01T14:10:55;3.85;;;1.45;;
79212;SDS011;68639;52.380;9.822;2023-08-01T14:13:21;4.00;;;1.30;;
79212;SDS011;68639;52.380;9.822;2023-08-01T14:15:46;4.40;;;1.50;;
79212;SDS011;68639;52.380;9.822;2023-08-01T14:18:11;6.40;;;1.27;;
79212;SDS011;68639;52.380;9.822;2023-08-01T14:20:36;7.88;;;1.38;;
79212;SDS011;68639;52.380;9.822;2023-08-01T14:23:01;5.82;;;1.30;;
79212;SDS011;68639;52.380;9.822;2023-08-01T14:25:27;4.05;;;1.50;;
79212;SDS011;68639;52.380;9.822;2023-08-01T14:27:52;5.47;;;1.48;;
79212;SDS011;68639;52.380;9.822;2023-08-01T14:30:17;3.75;;;1.40;;
79212;SDS011;68639;52.380;9.822;2023-08-01T14:32:42;4.93;;;1.48;;
79212;SDS011;68639;52.380;9.822;2023-08-01T14:35:08;2.55;;;1.00;;
79212;SDS011;68639;52.380;9.822;2023-08-01T14:37:34;5.32;;;1.13;;